createdAt,value
2019-03-06T00:00:19.333Z,46.16
2019-03-06T00:02:45.322Z,46.13
2019-03-06T00:05:11.321Z,46.17
2019-03-06T00:07:37.320Z,46.13
2019-03-06T00:10:03.321Z,46.14
2019-03-06T00:12:29.312Z,46.15
2019-03-06T00:14:55.312Z,46.15
2019-03-06T00:17:21.308Z,46.16
2019-03-06T00:19:47.320Z,46.16
2019-03-06T00:22:13.313Z,46.16
2019-03-06T00:24:39.317Z,46.16
2019-03-06T00:27:05.314Z,46.16
2019-03-06T00:29:31.348Z,46.14
2019-03-06T00:31:57.310Z,46.14
2019-03-06T00:34:23.309Z,46.10
2019-03-06T00:36:49.307Z,46.09
2019-03-06T00:39:15.312Z,46.15
2019-03-06T00:41:41.303Z,46.11
2019-03-06T00:44:07.303Z,46.10
2019-03-06T00:49:17.350Z,46.13
2019-03-06T00:51:43.343Z,46.11
2019-03-06T00:54:09.339Z,46.11
2019-03-06T00:56:35.339Z,46.07
2019-03-06T00:59:01.352Z,46.13
2019-03-06T01:01:27.346Z,46.10
2019-03-06T01:03:53.383Z,46.06
2019-03-06T01:06:19.388Z,46.11
2019-03-06T01:08:45.384Z,46.10
2019-03-06T01:11:11.380Z,46.08
2019-03-06T01:13:37.370Z,46.09
2019-03-06T01:16:03.370Z,46.06
2019-03-06T01:18:29.367Z,46.10
2019-03-06T01:20:55.366Z,46.09
2019-03-06T01:23:21.365Z,46.09
2019-03-06T01:25:47.371Z,46.08
2019-03-06T01:28:13.369Z,46.09
2019-03-06T01:30:39.367Z,46.08
2019-03-06T01:33:05.363Z,46.05
2019-03-06T01:35:31.354Z,46.06
2019-03-06T01:37:57.353Z,46.07
2019-03-06T01:40:23.359Z,46.06
2019-03-06T01:42:49.365Z,46.08
2019-03-06T01:45:15.354Z,46.04
2019-03-06T01:47:41.366Z,46.06
2019-03-06T01:50:07.370Z,46.05
2019-03-06T01:52:33.361Z,46.07
2019-03-06T01:54:59.363Z,46.04
2019-03-06T01:57:25.360Z,46.03
2019-03-06T01:59:51.362Z,46.04
2019-03-06T02:02:17.361Z,46.04
2019-03-06T02:04:43.371Z,46.02
2019-03-06T02:07:09.359Z,46.04
2019-03-06T02:09:35.380Z,46.03
2019-03-06T02:12:01.376Z,46.01
2019-03-06T02:14:27.372Z,46.03
2019-03-06T02:16:53.411Z,46.04
2019-03-06T02:19:19.367Z,46.02
2019-03-06T02:21:45.367Z,46.01
2019-03-06T02:24:11.366Z,46.00
2019-03-06T02:26:37.369Z,46.00
2019-03-06T02:29:03.364Z,45.99
2019-03-06T02:31:29.396Z,45.99
2019-03-06T02:33:55.401Z,46.00
2019-03-06T02:36:21.393Z,46.00
2019-03-06T02:38:47.392Z,46.01
2019-03-06T02:41:13.387Z,46.03
2019-03-06T02:43:39.388Z,46.00
2019-03-06T02:46:05.387Z,46.00
2019-03-06T02:48:31.386Z,46.00
2019-03-06T02:50:57.385Z,46.01
2019-03-06T02:53:23.385Z,46.05
2019-03-06T02:55:49.383Z,46.00
2019-03-06T02:58:15.398Z,46.04
2019-03-06T03:00:41.393Z,46.06
2019-03-06T03:03:07.396Z,46.03
2019-03-06T03:05:33.396Z,46.04
2019-03-06T03:07:59.403Z,46.03
2019-03-06T03:10:25.396Z,46.01
2019-03-06T03:12:51.421Z,46.01
2019-03-06T03:15:17.398Z,45.99
2019-03-06T03:17:43.408Z,45.98
2019-03-06T03:20:09.412Z,46.00
2019-03-06T03:22:35.395Z,45.99
2019-03-06T03:25:01.399Z,45.96
2019-03-06T03:27:27.395Z,45.97
2019-03-06T03:29:53.396Z,45.97
2019-03-06T03:32:19.386Z,45.96
2019-03-06T03:34:45.384Z,45.94
2019-03-06T03:37:11.379Z,45.94
2019-03-06T03:39:37.374Z,45.93
2019-03-06T03:42:03.487Z,45.94
2019-03-06T03:44:29.521Z,45.92
2019-03-06T03:46:55.524Z,45.90
2019-03-06T03:49:21.533Z,45.90
2019-03-06T03:51:47.526Z,45.90
2019-03-06T03:54:13.558Z,45.88
2019-03-06T03:56:39.546Z,45.89
2019-03-06T03:59:05.547Z,45.88
2019-03-06T04:01:31.558Z,45.86
2019-03-06T04:03:57.551Z,45.87
2019-03-06T04:06:23.553Z,45.87
2019-03-06T04:08:49.545Z,45.87
2019-03-06T04:11:15.563Z,45.87
2019-03-06T04:13:41.566Z,45.87
2019-03-06T04:16:07.554Z,45.87
2019-03-06T04:18:33.551Z,45.85
2019-03-06T04:20:59.545Z,45.87
2019-03-06T04:23:25.547Z,45.87
2019-03-06T04:25:51.540Z,45.84
2019-03-06T04:28:17.549Z,45.84
2019-03-06T04:30:43.547Z,45.86
2019-03-06T04:33:09.541Z,45.80
2019-03-06T04:35:35.562Z,45.80
2019-03-06T04:38:01.551Z,45.79
2019-03-06T04:40:27.552Z,45.81
2019-03-06T04:42:53.553Z,45.80
2019-03-06T04:45:19.547Z,45.82
2019-03-06T04:47:45.547Z,45.80
2019-03-06T04:50:11.552Z,45.79
2019-03-06T04:52:37.552Z,45.82
2019-03-06T04:55:03.616Z,45.78
2019-03-06T04:57:29.620Z,45.79
2019-03-06T04:59:55.612Z,45.79
2019-03-06T05:02:21.633Z,45.80
2019-03-06T05:04:47.669Z,45.87
2019-03-06T05:07:13.675Z,45.87
2019-03-06T05:09:39.760Z,45.86
2019-03-06T05:12:05.764Z,45.87
2019-03-06T05:14:31.756Z,45.87
2019-03-06T05:16:57.843Z,45.85
2019-03-06T05:19:23.808Z,45.85
2019-03-06T05:21:49.811Z,45.84
2019-03-06T05:24:15.807Z,45.83
2019-03-06T05:26:41.800Z,45.83
2019-03-06T05:29:07.805Z,45.87
2019-03-06T05:31:33.804Z,46.03
2019-03-06T05:33:59.900Z,46.05
2019-03-06T05:36:25.890Z,46.30
2019-03-06T05:38:51.895Z,46.45
2019-03-06T05:41:17.922Z,46.63
2019-03-06T05:43:43.939Z,47.07
2019-03-06T05:46:09.945Z,47.10
2019-03-06T05:48:35.953Z,46.82
2019-03-06T05:51:02.055Z,47.17
2019-03-06T05:53:28.059Z,46.98
2019-03-06T05:55:54.092Z,47.38
2019-03-06T05:58:20.110Z,47.22
2019-03-06T06:00:46.106Z,47.53
2019-03-06T06:03:12.114Z,47.50
2019-03-06T06:05:38.111Z,47.06
2019-03-06T06:08:04.109Z,47.50
2019-03-06T06:10:30.113Z,47.65
2019-03-06T06:12:56.111Z,47.41
2019-03-06T06:15:22.135Z,47.30
2019-03-06T06:17:48.130Z,47.65
2019-03-06T06:20:14.134Z,47.71
2019-03-06T06:22:40.195Z,47.78
2019-03-06T06:25:06.209Z,47.79
2019-03-06T06:27:32.214Z,47.44
2019-03-06T06:29:58.233Z,47.17
2019-03-06T06:32:24.252Z,47.20
2019-03-06T06:34:50.277Z,47.47
2019-03-06T06:37:16.278Z,47.62
2019-03-06T06:39:42.275Z,47.77
2019-03-06T06:42:08.293Z,48.16
2019-03-06T06:44:34.307Z,48.06
2019-03-06T06:47:00.314Z,47.74
2019-03-06T06:49:26.318Z,47.60
2019-03-06T06:51:52.324Z,48.12
2019-03-06T06:54:18.330Z,47.57
2019-03-06T06:56:44.362Z,49.88
2019-03-06T06:59:10.382Z,49.02
2019-03-06T07:01:36.409Z,49.27
2019-03-06T07:04:02.459Z,49.39
2019-03-06T07:06:28.453Z,50.48
2019-03-06T07:08:54.456Z,49.18
2019-03-06T07:11:20.453Z,48.83
2019-03-06T07:13:46.471Z,48.59
2019-03-06T07:16:12.467Z,49.57
2019-03-06T07:18:38.544Z,48.56
2019-03-06T07:21:04.552Z,49.46
2019-03-06T07:23:30.589Z,48.97
2019-03-06T07:25:56.700Z,48.49
2019-03-06T07:28:22.705Z,49.27
2019-03-06T07:30:48.723Z,49.44
2019-03-06T07:33:14.725Z,49.21
2019-03-06T07:35:40.743Z,49.65
2019-03-06T07:38:06.759Z,49.90
2019-03-06T07:40:32.767Z,49.88
2019-03-06T07:42:58.772Z,50.45
2019-03-06T07:45:24.834Z,50.08
2019-03-06T07:47:50.823Z,50.04
2019-03-06T07:50:16.821Z,49.48
2019-03-06T07:52:42.848Z,49.57
2019-03-06T07:55:08.843Z,50.23
2019-03-06T07:57:34.877Z,50.34
2019-03-06T08:00:00.881Z,50.04
2019-03-06T08:02:28.010Z,50.24
2019-03-06T08:04:52.883Z,49.97
2019-03-06T08:07:18.900Z,50.14
2019-03-06T08:09:44.914Z,49.33
2019-03-06T08:12:10.896Z,49.47
2019-03-06T08:14:36.897Z,49.74
2019-03-06T08:17:02.896Z,49.57
2019-03-06T08:19:28.908Z,49.22
2019-03-06T08:21:54.913Z,49.34
2019-03-06T08:24:20.922Z,49.00
2019-03-06T08:26:46.926Z,48.50
2019-03-06T08:29:12.929Z,49.22
2019-03-06T08:31:38.931Z,49.17
2019-03-06T08:34:04.932Z,49.97
2019-03-06T08:36:31.034Z,51.00
2019-03-06T08:38:57.072Z,49.95
2019-03-06T08:41:23.071Z,51.67
2019-03-06T08:43:49.224Z,50.39
2019-03-06T08:46:15.232Z,50.75
2019-03-06T08:48:41.236Z,49.81
2019-03-06T08:51:07.248Z,50.48
2019-03-06T08:53:33.250Z,49.65
2019-03-06T08:55:59.310Z,50.18
2019-03-06T08:58:25.308Z,50.05
2019-03-06T09:00:51.323Z,50.13
2019-03-06T09:03:17.321Z,49.28
2019-03-06T09:05:44.847Z,49.19
2019-03-06T09:08:09.370Z,49.55
2019-03-06T09:10:35.343Z,48.99
2019-03-06T09:13:01.347Z,49.10
2019-03-06T09:15:27.345Z,49.40
2019-03-06T09:17:53.342Z,48.98
2019-03-06T09:20:19.348Z,49.25
2019-03-06T09:22:45.354Z,48.64
2019-03-06T09:25:11.357Z,48.96
2019-03-06T09:27:37.376Z,48.84
2019-03-06T09:30:03.409Z,48.74
2019-03-06T09:32:29.512Z,48.98
2019-03-06T09:34:55.544Z,48.85
2019-03-06T09:37:21.533Z,49.19
2019-03-06T09:39:47.528Z,49.24
2019-03-06T09:42:13.530Z,49.01
2019-03-06T09:44:39.568Z,48.99
2019-03-06T09:47:05.587Z,48.62
2019-03-06T09:49:31.587Z,48.79
2019-03-06T09:51:57.574Z,48.63
2019-03-06T09:54:23.586Z,48.93
2019-03-06T09:56:49.592Z,49.05
2019-03-06T09:59:15.610Z,48.82
2019-03-06T10:01:41.620Z,48.48
2019-03-06T10:04:07.663Z,48.78
2019-03-06T10:06:33.660Z,48.64
2019-03-06T10:08:59.657Z,48.51
2019-03-06T10:11:25.660Z,48.52
2019-03-06T10:13:52.251Z,48.82
2019-03-06T10:16:17.700Z,48.63
2019-03-06T10:18:43.700Z,48.32
2019-03-06T10:21:09.733Z,48.39
2019-03-06T10:23:35.736Z,48.43
2019-03-06T10:26:01.795Z,48.40
2019-03-06T10:28:28.143Z,48.30
2019-03-06T10:31:02.192Z,48.45
2019-03-06T10:33:19.870Z,48.25
2019-03-06T10:35:45.864Z,48.50
2019-03-06T10:38:16.613Z,48.17
2019-03-06T10:40:37.864Z,48.49
2019-03-06T10:43:03.887Z,48.18
2019-03-06T10:45:29.891Z,48.16
2019-03-06T10:47:55.891Z,48.22
2019-03-06T10:50:27.528Z,48.42
2019-03-06T10:52:47.938Z,48.05
2019-03-06T10:55:13.943Z,48.40
2019-03-06T10:57:39.945Z,48.35
2019-03-06T11:00:05.936Z,48.25
2019-03-06T11:02:31.944Z,48.00
2019-03-06T11:04:57.994Z,48.23
2019-03-06T11:07:23.951Z,48.14
2019-03-06T11:09:49.956Z,47.91
2019-03-06T11:12:15.947Z,48.08
2019-03-06T11:14:42.003Z,47.93
2019-03-06T11:17:08.022Z,48.06
2019-03-06T11:19:34.039Z,47.85
2019-03-06T11:22:00.040Z,47.78
2019-03-06T11:24:26.036Z,47.81
2019-03-06T11:26:52.055Z,47.77
2019-03-06T11:29:19.427Z,47.76
2019-03-06T11:31:44.065Z,47.71
2019-03-06T11:34:10.062Z,47.76
2019-03-06T11:36:36.106Z,47.69
2019-03-06T11:39:02.102Z,47.46
2019-03-06T11:41:28.101Z,47.43
2019-03-06T11:43:54.107Z,47.41
2019-03-06T11:46:20.110Z,47.40
2019-03-06T11:48:46.120Z,47.33
2019-03-06T11:51:12.111Z,47.36
2019-03-06T11:53:38.107Z,47.30
2019-03-06T11:56:04.102Z,47.28
2019-03-06T11:58:30.143Z,47.19
2019-03-06T12:00:56.154Z,47.22
2019-03-06T12:03:24.052Z,47.25
2019-03-06T12:05:50.051Z,47.19
2019-03-06T12:08:16.053Z,47.16
2019-03-06T12:10:42.069Z,47.15
2019-03-06T12:13:08.063Z,47.17
2019-03-06T12:15:34.068Z,47.12
2019-03-06T12:18:00.065Z,47.07
2019-03-06T12:20:26.141Z,47.01
2019-03-06T12:22:52.147Z,47.04
2019-03-06T12:25:18.151Z,46.98
2019-03-06T12:27:44.152Z,46.99
2019-03-06T12:30:10.150Z,46.98
2019-03-06T12:32:36.166Z,47.01
2019-03-06T12:35:02.170Z,46.99
2019-03-06T12:37:28.167Z,46.95
2019-03-06T12:39:54.167Z,46.93
2019-03-06T12:42:20.188Z,46.91
2019-03-06T12:44:46.212Z,46.87
2019-03-06T12:47:12.213Z,46.85
2019-03-06T12:49:38.214Z,46.82
2019-03-06T12:52:04.212Z,46.81
2019-03-06T12:54:30.211Z,46.74
2019-03-06T12:56:56.209Z,46.79
2019-03-06T12:59:22.222Z,46.73
2019-03-06T13:01:48.231Z,46.72
2019-03-06T13:04:14.276Z,46.70
2019-03-06T13:06:40.271Z,46.63
2019-03-06T13:09:06.282Z,46.55
2019-03-06T13:11:32.320Z,46.54
2019-03-06T13:13:58.307Z,46.47
2019-03-06T13:16:24.305Z,46.43
2019-03-06T13:18:50.495Z,46.40
2019-03-06T13:21:16.489Z,46.32
2019-03-06T13:23:42.540Z,46.24
2019-03-06T13:26:10.651Z,46.20
2019-03-06T13:28:34.545Z,46.16
2019-03-06T13:31:00.552Z,46.18
2019-03-06T13:33:26.575Z,46.21
2019-03-06T13:35:52.582Z,46.09
2019-03-06T13:38:18.583Z,46.14
2019-03-06T13:40:44.700Z,46.12
2019-03-06T13:43:10.691Z,45.92
2019-03-06T13:45:36.707Z,46.12
2019-03-06T13:48:02.707Z,46.08
2019-03-06T13:50:28.759Z,46.09
2019-03-06T13:52:54.755Z,46.12
2019-03-06T13:55:20.749Z,46.07
2019-03-06T13:57:46.754Z,46.07
2019-03-06T14:00:12.748Z,46.01
2019-03-06T14:02:38.799Z,46.09
2019-03-06T14:05:04.784Z,45.93
2019-03-06T14:07:30.806Z,45.74
2019-03-06T14:09:56.814Z,45.82
2019-03-06T14:12:22.828Z,45.74
2019-03-06T14:14:48.837Z,45.73
2019-03-06T14:17:14.840Z,45.61
2019-03-06T14:19:40.873Z,45.62
2019-03-06T14:22:06.866Z,45.72
2019-03-06T14:24:32.877Z,45.63
2019-03-06T14:26:58.875Z,45.70
2019-03-06T14:29:24.977Z,45.51
2019-03-06T14:31:51.026Z,45.68
2019-03-06T14:34:17.047Z,45.36
2019-03-06T14:36:43.052Z,45.40
2019-03-06T14:39:09.113Z,45.35
2019-03-06T14:41:35.109Z,45.50
2019-03-06T14:44:01.211Z,45.26
2019-03-06T14:46:27.363Z,45.46
2019-03-06T14:48:53.422Z,45.33
2019-03-06T14:51:19.428Z,45.33
2019-03-06T14:53:45.431Z,45.26
2019-03-06T14:56:11.424Z,45.38
2019-03-06T14:58:37.422Z,45.40
2019-03-06T15:01:03.425Z,45.52
2019-03-06T15:03:29.444Z,45.47
2019-03-06T15:05:55.438Z,45.23
2019-03-06T15:08:21.438Z,45.20
2019-03-06T15:10:47.441Z,45.11
2019-03-06T15:13:13.615Z,44.86
2019-03-06T15:15:39.629Z,45.06
2019-03-06T15:18:10.744Z,45.20
2019-03-06T15:20:31.657Z,45.21
2019-03-06T15:22:57.664Z,45.25
2019-03-06T15:25:23.664Z,44.87
2019-03-06T15:27:49.674Z,45.20
2019-03-06T15:30:15.667Z,45.21
2019-03-06T15:32:42.230Z,45.03
2019-03-06T15:35:07.689Z,45.17
2019-03-06T15:37:33.708Z,44.83
2019-03-06T15:39:59.703Z,45.04
2019-03-06T15:42:25.696Z,45.07
2019-03-06T15:44:51.695Z,44.66
2019-03-06T15:47:17.693Z,44.64
2019-03-06T15:49:43.695Z,44.75
2019-03-06T15:52:09.701Z,44.93
2019-03-06T15:54:35.685Z,44.55
2019-03-06T15:57:01.692Z,44.70
2019-03-06T15:59:27.722Z,44.84
2019-03-06T16:01:53.728Z,44.86
2019-03-06T16:04:19.733Z,44.72
2019-03-06T16:06:53.811Z,44.53
2019-03-06T16:09:11.746Z,44.99
2019-03-06T16:11:37.745Z,44.71
2019-03-06T16:14:03.749Z,44.58
2019-03-06T16:16:29.754Z,44.58
2019-03-06T16:18:56.835Z,44.50
2019-03-06T16:21:21.763Z,44.58
2019-03-06T16:23:47.871Z,44.55
2019-03-06T16:26:13.863Z,44.71
2019-03-06T16:28:39.856Z,44.78
2019-03-06T16:31:05.863Z,44.89
2019-03-06T16:33:31.857Z,44.65
2019-03-06T16:35:57.867Z,44.80
2019-03-06T16:38:23.865Z,44.85
2019-03-06T16:40:49.913Z,44.94
2019-03-06T16:43:15.906Z,44.97
2019-03-06T16:45:41.938Z,45.07
2019-03-06T16:48:08.089Z,45.18
2019-03-06T16:50:34.098Z,45.13
2019-03-06T16:53:00.101Z,45.14
2019-03-06T16:55:26.110Z,45.22
2019-03-06T16:57:52.236Z,45.19
2019-03-06T17:00:18.244Z,45.34
2019-03-06T17:02:44.254Z,45.25
2019-03-06T17:05:10.291Z,45.33
2019-03-06T17:07:36.272Z,45.31
2019-03-06T17:10:02.314Z,45.33
2019-03-06T17:12:28.321Z,45.37
2019-03-06T17:14:54.321Z,45.41
2019-03-06T17:17:20.336Z,45.52
2019-03-06T17:19:46.339Z,45.48
2019-03-06T17:22:12.399Z,45.41
2019-03-06T17:24:38.420Z,45.37
2019-03-06T17:27:04.444Z,45.31
2019-03-06T17:29:30.448Z,45.31
2019-03-06T17:31:56.448Z,45.32
2019-03-06T17:34:22.444Z,45.31
2019-03-06T17:36:48.449Z,45.32
2019-03-06T17:39:14.482Z,45.39
2019-03-06T17:41:40.499Z,45.33
2019-03-06T17:44:06.491Z,45.32
2019-03-06T17:46:32.502Z,45.33
2019-03-06T17:48:58.500Z,45.33
2019-03-06T17:51:24.510Z,45.35
2019-03-06T17:53:50.515Z,45.55
2019-03-06T17:56:16.536Z,45.74
2019-03-06T17:58:42.533Z,46.06
2019-03-06T18:01:08.527Z,46.33
2019-03-06T18:03:34.529Z,46.59
2019-03-06T18:06:00.528Z,46.66
2019-03-06T18:08:26.523Z,46.81
2019-03-06T18:10:52.533Z,46.84
2019-03-06T18:13:18.564Z,47.00
2019-03-06T18:15:44.632Z,47.01
2019-03-06T18:18:10.555Z,46.89
2019-03-06T18:20:36.550Z,47.14
2019-03-06T18:23:02.547Z,46.93
2019-03-06T18:25:28.597Z,47.04
2019-03-06T18:27:54.670Z,47.05
2019-03-06T18:30:20.743Z,46.93
2019-03-06T18:32:46.858Z,47.17
2019-03-06T18:35:12.895Z,46.95
2019-03-06T18:37:38.904Z,47.15
2019-03-06T18:40:06.029Z,47.00
2019-03-06T18:42:32.043Z,47.24
2019-03-06T18:44:58.029Z,47.05
2019-03-06T18:47:24.065Z,47.04
2019-03-06T18:49:50.055Z,47.03
2019-03-06T18:52:16.117Z,47.30
2019-03-06T18:54:42.122Z,47.28
2019-03-06T18:57:08.120Z,47.42
2019-03-06T18:59:34.190Z,47.11
2019-03-06T19:02:00.271Z,47.48
2019-03-06T19:04:26.277Z,47.59
2019-03-06T19:06:52.280Z,47.61
2019-03-06T19:09:20.374Z,47.44
2019-03-06T19:11:46.401Z,47.62
2019-03-06T19:14:12.417Z,47.54
2019-03-06T19:16:38.432Z,47.48
2019-03-06T19:19:04.437Z,47.59
2019-03-06T19:21:30.440Z,47.67
2019-03-06T19:23:56.442Z,47.60
2019-03-06T19:26:22.444Z,47.38
2019-03-06T19:28:48.488Z,47.56
2019-03-06T19:31:14.498Z,47.69
2019-03-06T19:33:40.516Z,47.70
2019-03-06T19:36:06.533Z,47.63
2019-03-06T19:38:32.534Z,47.47
2019-03-06T19:40:58.550Z,47.59
2019-03-06T19:43:24.548Z,47.43
2019-03-06T19:45:50.567Z,47.34
2019-03-06T19:48:16.627Z,47.12
2019-03-06T19:50:42.579Z,46.89
2019-03-06T19:53:08.618Z,46.82
2019-03-06T19:55:34.619Z,46.73
2019-03-06T19:58:00.640Z,46.64
2019-03-06T20:00:26.642Z,46.63
2019-03-06T20:02:52.638Z,47.03
2019-03-06T20:05:18.643Z,47.17
2019-03-06T20:07:44.657Z,47.26
2019-03-06T20:10:10.662Z,47.24
2019-03-06T20:12:36.664Z,47.23
2019-03-06T20:15:02.662Z,47.26
2019-03-06T20:17:28.787Z,47.30
2019-03-06T20:19:54.792Z,47.34
2019-03-06T20:22:22.761Z,47.36
2019-03-06T20:24:46.799Z,47.37
2019-03-06T20:27:12.791Z,47.35
2019-03-06T20:29:38.931Z,47.44
2019-03-06T20:32:04.982Z,47.48
2019-03-06T20:34:31.232Z,47.44
2019-03-06T20:36:57.243Z,47.40
2019-03-06T20:39:23.245Z,47.47
2019-03-06T20:41:49.289Z,47.49
2019-03-06T20:44:15.331Z,47.49
2019-03-06T20:46:41.341Z,47.48
2019-03-06T20:49:07.336Z,47.50
2019-03-06T20:51:33.337Z,47.54
2019-03-06T20:53:59.348Z,47.52
2019-03-06T20:56:25.340Z,47.58
2019-03-06T20:58:51.335Z,47.58
2019-03-06T21:01:17.343Z,47.51
2019-03-06T21:03:43.343Z,47.41
2019-03-06T21:06:09.340Z,47.49
2019-03-06T21:08:35.363Z,47.45
2019-03-06T21:11:01.364Z,47.52
2019-03-06T21:13:27.365Z,47.39
2019-03-06T21:15:53.364Z,47.52
2019-03-06T21:18:19.369Z,47.47
2019-03-06T21:20:45.393Z,47.42
2019-03-06T21:23:11.398Z,47.50
2019-03-06T21:25:37.391Z,47.56
2019-03-06T21:28:03.394Z,47.41
2019-03-06T21:30:29.383Z,47.36
2019-03-06T21:32:55.402Z,47.31
2019-03-06T21:35:21.400Z,47.37
2019-03-06T21:37:47.408Z,47.33
2019-03-06T21:40:13.414Z,47.33
2019-03-06T21:42:39.405Z,47.30
2019-03-06T21:45:05.433Z,47.22
2019-03-06T21:47:31.427Z,47.26
2019-03-06T21:49:57.429Z,47.27
2019-03-06T21:52:23.433Z,47.21
2019-03-06T21:54:49.445Z,47.15
2019-03-06T21:57:15.538Z,47.24
2019-03-06T21:59:41.542Z,47.16
2019-03-06T22:02:07.529Z,47.22
2019-03-06T22:04:33.541Z,47.18
2019-03-06T22:06:59.539Z,47.18
2019-03-06T22:09:26.530Z,47.07
2019-03-06T22:11:52.530Z,46.92
2019-03-06T22:14:18.541Z,46.84
2019-03-06T22:16:44.572Z,46.83
2019-03-06T22:19:10.546Z,46.73
2019-03-06T22:21:36.574Z,46.70
2019-03-06T22:24:02.563Z,46.61
2019-03-06T22:26:28.668Z,46.54
2019-03-06T22:28:54.675Z,46.52
2019-03-06T22:31:20.673Z,46.48
2019-03-06T22:33:46.699Z,46.42
2019-03-06T22:36:12.701Z,46.41
2019-03-06T22:38:38.728Z,46.36
2019-03-06T22:41:04.731Z,46.31
2019-03-06T22:43:30.733Z,46.25
2019-03-06T22:45:56.744Z,46.25
2019-03-06T22:48:22.739Z,46.20
2019-03-06T22:50:48.775Z,46.13
2019-03-06T22:53:14.734Z,46.08
2019-03-06T22:55:40.749Z,46.17
2019-03-06T22:58:06.736Z,46.01
2019-03-06T23:00:32.759Z,45.92
2019-03-06T23:02:58.772Z,45.97
2019-03-06T23:05:24.772Z,45.98
2019-03-06T23:07:50.773Z,45.84
2019-03-06T23:10:16.764Z,45.79
2019-03-06T23:12:42.769Z,45.75
2019-03-06T23:15:08.764Z,45.83
2019-03-06T23:17:34.768Z,45.71
2019-03-06T23:20:00.761Z,45.66
2019-03-06T23:22:26.784Z,45.59
2019-03-06T23:24:52.778Z,45.63
2019-03-06T23:27:18.775Z,45.58
2019-03-06T23:29:44.774Z,45.64
2019-03-06T23:32:10.776Z,45.51
2019-03-06T23:34:36.775Z,45.52
2019-03-06T23:37:02.774Z,45.61
2019-03-06T23:39:28.857Z,45.66
2019-03-06T23:41:54.856Z,45.50
2019-03-06T23:44:20.880Z,45.46
2019-03-06T23:46:46.875Z,45.34
2019-03-06T23:49:12.871Z,45.42
2019-03-06T23:51:38.878Z,45.39
2019-03-06T23:54:04.877Z,45.41
2019-03-06T23:56:30.897Z,45.35
2019-03-06T23:58:56.893Z,45.39
